Decoded Metar for LROD (ORADEA in ROMANIA) (IATA:OMR) | Meteo·Mobile Aviation Weather
aviador You're here:

LROD Decoded Metar

ORADEA in ROMANIA
Report Time2018-09-23 14:00:00
UTC Time2018-09-23 14:34:00
Flight Rules vfr VFR
Wind200° at 07 kt
W.Decomp.*RWY 19: 7.0 kt HW 0.7 kt RCW
W.Rank200° ranks 4
Current wind is below 200° avg. (9.2)
Visibility9999 m
Phenomena:N/A
Clouds:N/A
Expected CloudBase > 5,600 ft AGL from Temp-Dew spread
CeilingNone
Temp19°C (ISA +5)
Dew Point05°C (40% RH)
AAT15.4°C
QNH1019 hPa
Density Alt955 ft
Elevation459 ft
Report Wrong Elevation
Raw Report
METAR LROD 231400Z 20007KT CAVOK 19/05 Q1019=

Extra information for LROD:More info

Metar Taf Metar & Taf Last 4 Metars F.Rules Stats Wind Profile Meteogram Temp Stats Airport Information Weather charts Add Link Nearby VenuesMetar ALERT Operation Metar Decoded Social comments